createdAt,value
2019-02-09T00:00:04.068Z,7.30
2019-02-09T00:02:37.036Z,7.30
2019-02-09T00:05:11.227Z,7.40
2019-02-09T00:07:54.607Z,7.40
2019-02-09T00:10:30.962Z,7.40
2019-02-09T00:13:03.650Z,7.30
2019-02-09T00:15:49.176Z,7.40
2019-02-09T00:18:27.680Z,7.20
2019-02-09T00:21:03.429Z,7.30
2019-02-09T00:23:43.748Z,7.20
2019-02-09T00:26:21.164Z,7.20
2019-02-09T00:28:57.616Z,7.10
2019-02-09T00:31:31.185Z,7.10
2019-02-09T00:34:02.353Z,7.00
2019-02-09T00:36:38.841Z,7.00
2019-02-09T00:39:11.744Z,7.00
2019-02-09T00:41:45.325Z,7.00
2019-02-09T00:44:16.475Z,7.00
2019-02-09T00:46:49.039Z,7.10
2019-02-09T00:49:20.257Z,7.10
2019-02-09T00:51:55.249Z,7.00
2019-02-09T00:54:30.491Z,7.00
2019-02-09T00:57:05.575Z,7.00
2019-02-09T00:59:42.330Z,7.00
2019-02-09T01:02:21.562Z,7.00
2019-02-09T01:04:51.887Z,7.00
2019-02-09T01:07:24.124Z,7.00
2019-02-09T01:09:58.854Z,7.00
2019-02-09T01:12:33.819Z,6.90
2019-02-09T01:15:08.964Z,6.90
2019-02-09T01:17:40.265Z,6.90
2019-02-09T01:20:22.882Z,6.90
2019-02-09T01:23:06.125Z,6.90
2019-02-09T01:25:37.336Z,6.80
2019-02-09T01:28:12.924Z,6.80
2019-02-09T01:30:43.976Z,6.80
2019-02-09T01:33:15.729Z,6.70
2019-02-09T01:35:48.077Z,6.70
2019-02-09T01:38:20.608Z,6.70
2019-02-09T01:40:54.489Z,6.60
2019-02-09T01:43:27.043Z,6.60
2019-02-09T01:45:57.605Z,6.60
2019-02-09T01:48:32.628Z,6.60
2019-02-09T01:51:03.865Z,6.60
2019-02-09T01:53:34.568Z,6.70
2019-02-09T01:56:05.536Z,6.70
2019-02-09T01:58:38.019Z,6.70
2019-02-09T02:01:08.461Z,6.80
2019-02-09T02:03:40.999Z,6.80
2019-02-09T02:06:16.940Z,6.70
2019-02-09T02:08:52.925Z,6.70
2019-02-09T02:11:27.887Z,6.70
2019-02-09T02:14:01.471Z,6.70
2019-02-09T02:16:35.011Z,6.70
2019-02-09T02:19:08.136Z,6.80
2019-02-09T02:21:49.262Z,6.80
2019-02-09T02:24:20.352Z,6.80
2019-02-09T02:26:53.101Z,6.80
2019-02-09T02:29:32.856Z,6.90
2019-02-09T02:32:03.286Z,6.90
2019-02-09T02:34:40.750Z,6.90
2019-02-09T02:37:14.870Z,7.00
2019-02-09T02:39:47.985Z,7.00
2019-02-09T02:42:20.860Z,7.10
2019-02-09T02:44:55.374Z,7.10
2019-02-09T02:47:27.075Z,7.20
2019-02-09T02:49:57.718Z,7.20
2019-02-09T02:52:29.053Z,7.10
2019-02-09T02:55:02.877Z,7.10
2019-02-09T02:57:34.353Z,7.10
2019-02-09T11:45:54.395Z,9.70
2019-02-09T11:48:23.211Z,9.80
2019-02-09T11:50:52.393Z,9.70
2019-02-09T11:53:21.178Z,9.80
2019-02-09T11:55:50.416Z,9.80
2019-02-09T11:58:19.220Z,10.00
2019-02-09T12:00:53.256Z,10.30
2019-02-09T12:03:22.061Z,10.70
2019-02-09T12:05:50.919Z,10.40
2019-02-09T12:08:19.919Z,11.30
2019-02-09T12:10:48.799Z,12.10
2019-02-09T12:13:17.728Z,12.60
2019-02-09T12:15:46.695Z,12.20
2019-02-09T12:18:15.500Z,11.90
2019-02-09T12:20:46.369Z,11.30
2019-02-09T12:23:15.735Z,10.90
2019-02-09T12:25:45.781Z,10.90
2019-02-09T12:28:14.824Z,10.60
2019-02-09T12:30:43.665Z,10.50
2019-02-09T12:33:13.008Z,10.30
2019-02-09T12:35:43.795Z,10.20
2019-02-09T12:38:13.009Z,10.20
2019-02-09T12:40:42.334Z,10.20
2019-02-09T12:43:11.124Z,10.20
2019-02-09T12:45:40.221Z,10.10
2019-02-09T12:48:10.340Z,10.10
2019-02-09T12:50:39.409Z,10.10
2019-02-09T12:53:08.588Z,10.10
2019-02-09T12:55:38.233Z,10.00
2019-02-09T12:58:07.456Z,9.90
2019-02-09T13:00:40.152Z,9.90
2019-02-09T13:03:21.344Z,9.90
2019-02-09T13:05:50.535Z,9.80
2019-02-09T13:08:19.405Z,9.80
2019-02-09T13:10:48.408Z,9.80
2019-02-09T13:13:17.496Z,9.90
2019-02-09T13:15:46.217Z,9.80
2019-02-09T13:18:15.749Z,9.80
2019-02-09T13:20:44.425Z,9.70
2019-02-09T13:23:13.207Z,9.70
2019-02-09T13:25:42.104Z,9.70
2019-02-09T13:28:10.953Z,9.60
2019-02-09T13:30:40.630Z,9.60
2019-02-09T13:33:09.480Z,9.60
2019-02-09T13:35:38.373Z,9.70
2019-02-09T13:38:07.244Z,9.70
2019-02-09T13:40:36.258Z,9.80
2019-02-09T13:43:05.480Z,9.90
2019-02-09T13:45:41.638Z,10.00
2019-02-09T13:48:10.812Z,10.10
2019-02-09T13:50:39.868Z,10.20
2019-02-09T13:53:10.432Z,10.20
2019-02-09T13:55:39.408Z,10.30
2019-02-09T13:58:08.587Z,10.30
2019-02-09T14:00:37.813Z,10.30
2019-02-09T14:03:08.218Z,10.30
2019-02-09T14:05:37.664Z,10.40
2019-02-09T14:08:07.726Z,10.30
2019-02-09T14:10:37.440Z,10.40
2019-02-09T14:13:13.979Z,10.40
2019-02-09T14:15:37.830Z,10.40
2019-02-09T14:18:09.463Z,10.40
2019-02-09T14:20:38.299Z,10.40
2019-02-09T14:23:07.510Z,10.40
2019-02-09T14:25:36.580Z,10.40
2019-02-09T14:28:07.848Z,10.30
2019-02-09T14:30:37.462Z,10.30
2019-02-09T14:33:09.415Z,10.20
2019-02-09T14:35:40.185Z,10.10
2019-02-09T14:38:09.455Z,10.10
2019-02-09T14:40:38.440Z,10.00
2019-02-09T14:43:09.813Z,10.00
2019-02-09T14:45:44.224Z,9.80
2019-02-09T14:48:13.398Z,9.30
2019-02-09T14:50:42.145Z,9.00
2019-02-09T14:53:12.646Z,8.60
2019-02-09T14:55:41.641Z,8.40
2019-02-09T14:58:14.320Z,7.90
2019-02-09T15:00:47.189Z,7.80
2019-02-09T15:03:16.609Z,7.70
2019-02-09T15:05:45.601Z,7.70
2019-02-09T15:08:14.584Z,7.70
2019-02-09T15:10:43.619Z,7.80
2019-02-09T15:13:15.648Z,7.90
2019-02-09T15:16:29.346Z,8.00
2019-02-09T15:18:58.232Z,7.90
2019-02-09T15:21:27.224Z,7.90
2019-02-09T15:23:55.958Z,7.80
2019-02-09T15:26:24.808Z,7.80
2019-02-09T15:28:54.309Z,7.90
2019-02-09T15:31:23.108Z,8.00
2019-02-09T15:33:51.960Z,8.00
2019-02-09T15:36:20.952Z,8.00
2019-02-09T15:38:50.200Z,8.00
2019-02-09T15:41:19.030Z,8.00
2019-02-09T15:43:47.725Z,8.00
2019-02-09T15:46:16.771Z,8.00
2019-02-09T15:48:45.535Z,8.00
2019-02-09T15:51:14.355Z,8.10
2019-02-09T15:53:43.088Z,8.10
2019-02-09T15:56:11.987Z,8.10
2019-02-09T15:58:41.100Z,8.20
2019-02-09T16:01:10.044Z,8.20
2019-02-09T16:03:38.858Z,8.20
2019-02-09T16:06:07.764Z,8.20
2019-02-09T16:08:36.590Z,8.30
2019-02-09T16:11:05.922Z,8.30
2019-02-09T16:13:34.655Z,8.40
2019-02-09T16:16:04.055Z,8.50
2019-02-09T16:18:34.333Z,8.40
2019-02-09T16:21:05.047Z,8.40
2019-02-09T16:23:35.750Z,8.40
2019-02-09T16:26:05.079Z,8.40
2019-02-09T16:28:36.964Z,8.40
2019-02-09T16:31:06.748Z,8.50
2019-02-09T16:33:35.758Z,8.50
2019-02-09T16:36:05.370Z,8.50
2019-02-09T16:38:34.628Z,8.60
2019-02-09T16:41:06.808Z,8.60
2019-02-09T16:43:35.872Z,8.50
2019-02-09T16:46:05.005Z,8.60
2019-02-09T16:48:37.008Z,8.70
2019-02-09T16:51:12.048Z,8.70
2019-02-09T16:53:41.365Z,8.70
2019-02-09T16:56:10.348Z,8.80
2019-02-09T16:58:41.612Z,8.80
2019-02-09T17:01:11.403Z,8.80
2019-02-09T17:03:42.928Z,8.90
2019-02-09T17:06:15.712Z,8.90
2019-02-09T17:08:44.817Z,9.00
2019-02-09T17:11:15.216Z,8.90
2019-02-09T17:13:44.107Z,8.90
2019-02-09T17:16:12.821Z,9.00
2019-02-09T17:18:42.222Z,9.10
2019-02-09T17:21:11.022Z,9.10
2019-02-09T17:23:39.844Z,9.20
2019-02-09T17:26:08.803Z,9.20
2019-02-09T17:28:38.087Z,9.10
2019-02-09T17:31:07.575Z,9.00
2019-02-09T17:33:37.231Z,9.00
2019-02-09T17:36:06.418Z,9.00
2019-02-09T17:38:35.777Z,9.00
2019-02-09T17:41:04.969Z,9.00
2019-02-09T17:43:34.001Z,9.00
2019-02-09T17:46:08.657Z,9.00
2019-02-09T17:48:37.649Z,9.00
2019-02-09T17:51:06.708Z,9.00
2019-02-09T17:53:35.673Z,9.00
2019-02-09T17:56:05.117Z,9.00
2019-02-09T17:58:34.697Z,9.00
2019-02-09T18:01:07.433Z,9.00
2019-02-09T18:03:36.423Z,9.00
2019-02-09T18:06:05.680Z,9.00
2019-02-09T18:08:34.542Z,9.00
2019-02-09T18:11:03.329Z,9.00
2019-02-09T18:13:32.324Z,9.00
2019-02-09T18:16:01.352Z,8.90
2019-02-09T18:18:30.062Z,9.00
2019-02-09T18:20:58.972Z,9.10
2019-02-09T18:23:27.692Z,9.10
2019-02-09T18:25:56.759Z,9.10
2019-02-09T18:28:25.720Z,9.10
2019-02-09T18:30:54.572Z,9.10
2019-02-09T18:33:23.526Z,9.10
2019-02-09T18:35:52.316Z,9.10
2019-02-09T18:38:22.658Z,9.00
2019-02-09T18:40:51.347Z,9.10
2019-02-09T18:43:20.071Z,9.10
2019-02-09T18:45:49.076Z,9.10
2019-02-09T18:48:18.023Z,9.10
2019-02-09T18:50:47.084Z,9.10
2019-02-09T18:53:15.807Z,9.10
2019-02-09T18:55:44.520Z,9.00
2019-02-09T18:58:13.536Z,9.10
2019-02-09T19:00:45.290Z,9.00
2019-02-09T19:03:15.197Z,9.00
2019-02-09T19:05:43.973Z,9.00
2019-02-09T19:08:13.160Z,9.00
2019-02-09T19:10:41.908Z,9.00
2019-02-09T19:13:10.740Z,9.00
2019-02-09T19:15:39.863Z,9.00
2019-02-09T19:18:08.960Z,8.90
2019-02-09T19:20:42.343Z,9.00
2019-02-09T19:23:12.584Z,9.00
2019-02-09T19:25:41.357Z,9.00
2019-02-09T19:28:10.131Z,9.10
2019-02-09T19:30:40.224Z,9.10
2019-02-09T19:33:09.196Z,9.10
2019-02-09T19:35:38.220Z,9.00
2019-02-09T19:38:07.004Z,9.00
2019-02-09T19:40:35.748Z,9.00
2019-02-09T19:43:06.682Z,9.00
2019-02-09T19:45:35.554Z,8.90
2019-02-09T19:48:04.870Z,8.70
2019-02-09T19:50:33.605Z,8.60
2019-02-09T19:53:02.637Z,8.60
2019-02-09T19:55:32.498Z,8.50
2019-02-09T19:58:01.386Z,8.50
2019-02-09T20:00:35.826Z,8.50
2019-02-09T20:03:06.108Z,8.50
2019-02-09T20:05:34.957Z,8.50
2019-02-09T20:08:05.398Z,8.50
2019-02-09T20:10:36.558Z,8.40
2019-02-09T20:13:07.644Z,8.40
2019-02-09T20:15:37.385Z,8.50
2019-02-09T20:18:07.409Z,8.40
2019-02-09T20:20:36.560Z,8.40
2019-02-09T20:23:06.033Z,8.40
2019-02-09T20:25:35.272Z,8.40
2019-02-09T20:28:04.686Z,8.40
2019-02-09T20:30:34.497Z,8.40
2019-02-09T20:33:03.890Z,8.40
2019-02-09T20:35:33.020Z,8.50
2019-02-09T20:38:01.898Z,8.60
2019-02-09T20:41:08.032Z,8.50
2019-02-09T20:43:36.808Z,8.60
2019-02-09T20:46:05.813Z,8.60
2019-02-09T20:49:12.589Z,8.60
2019-02-09T20:51:39.256Z,8.60
2019-02-09T20:54:08.548Z,8.60
2019-02-09T20:56:37.767Z,8.60
2019-02-09T20:59:14.363Z,8.60
2019-02-09T21:01:43.303Z,8.60
2019-02-09T21:04:14.497Z,8.60
2019-02-09T21:06:45.305Z,8.60
2019-02-09T21:09:14.688Z,8.70
2019-02-09T21:11:43.571Z,8.60
2019-02-09T21:14:12.286Z,8.70
2019-02-09T21:16:51.754Z,8.70
2019-02-09T21:19:20.070Z,8.70
2019-02-09T21:21:49.007Z,8.60
2019-02-09T21:24:18.036Z,8.70
2019-02-09T21:26:47.023Z,8.60
2019-02-09T21:29:15.978Z,8.70
2019-02-09T21:31:45.311Z,8.70
2019-02-09T21:34:14.265Z,8.70
2019-02-09T21:36:43.039Z,8.70
2019-02-09T21:39:12.288Z,8.70
2019-02-09T21:41:41.835Z,8.70
2019-02-09T21:44:11.962Z,8.60
2019-02-09T22:05:03.622Z,8.50
2019-02-09T22:07:32.564Z,8.50
2019-02-09T22:10:01.696Z,8.50
2019-02-09T22:12:31.420Z,8.50
2019-02-09T22:15:00.426Z,8.50
2019-02-09T22:17:29.500Z,8.60
2019-02-09T22:19:58.289Z,8.50
2019-02-09T22:22:27.582Z,8.60
2019-02-09T22:24:56.638Z,8.50
2019-02-09T22:27:26.135Z,8.50
2019-02-09T22:29:55.573Z,8.50
2019-02-09T22:32:24.711Z,8.50
2019-02-09T22:34:53.513Z,8.50
2019-02-09T22:37:22.302Z,8.50
2019-02-09T22:39:52.304Z,8.50
2019-02-09T22:42:21.314Z,8.50
2019-02-09T22:44:50.005Z,8.50
2019-02-09T22:47:20.838Z,8.50
2019-02-09T22:49:49.549Z,8.50
2019-02-09T22:52:18.877Z,8.50
2019-02-09T22:54:47.590Z,8.40
2019-02-09T22:57:16.530Z,8.40
2019-02-09T22:59:45.304Z,8.40
2019-02-09T23:02:14.356Z,8.40
2019-02-09T23:05:15.397Z,8.40
2019-02-09T23:07:44.389Z,8.40
2019-02-09T23:10:15.413Z,8.40
2019-02-09T23:12:48.668Z,8.40
2019-02-09T23:15:15.304Z,8.40
2019-02-09T23:17:44.318Z,8.40
2019-02-09T23:20:13.356Z,8.40
2019-02-09T23:22:42.566Z,8.40
2019-02-09T23:25:11.570Z,8.40
2019-02-09T23:27:40.332Z,8.40
2019-02-09T23:30:12.084Z,8.30
2019-02-09T23:32:40.872Z,8.30
2019-02-09T23:35:09.684Z,8.30
2019-02-09T23:37:38.392Z,8.30
2019-02-09T23:40:07.708Z,8.30
2019-02-09T23:42:36.520Z,8.30
2019-02-09T23:45:05.572Z,8.40
2019-02-09T23:47:34.575Z,8.40
2019-02-09T23:50:03.569Z,8.30
2019-02-09T23:52:32.304Z,8.30
2019-02-09T23:55:01.114Z,8.30
2019-02-09T23:57:30.050Z,8.30
2019-02-09T23:59:59.025Z,8.30
